sensor_id;sensor_type;location;lat;lon;timestamp;pressure;altitude;pressure_sealevel;temperature;humidity
47166;BME280;32930;51.112;13.762;2023-01-28T00:03:52;100149.78;;;2.75;99.33
47166;BME280;32930;51.112;13.762;2023-01-28T00:06:18;100146.59;;;2.79;98.69
47166;BME280;32930;51.112;13.762;2023-01-28T00:08:44;100151.91;;;2.66;98.86
47166;BME280;32930;51.112;13.762;2023-01-28T00:11:11;100146.81;;;2.66;99.71
47166;BME280;32930;51.112;13.762;2023-01-28T00:35:43;100156.81;;;2.81;96.29
47166;BME280;32930;51.112;13.762;2023-01-28T00:40:44;100154.84;;;2.75;96.23
47166;BME280;32930;51.112;13.762;2023-01-28T00:43:13;100163.75;;;2.85;97.14
47166;BME280;32930;51.112;13.762;2023-01-28T00:45:39;100164.06;;;2.93;95.72
47166;BME280;32930;51.112;13.762;2023-01-28T00:48:07;100165.75;;;2.92;95.41
47166;BME280;32930;51.112;13.762;2023-01-28T00:50:38;100170.03;;;2.93;95.70
47166;BME280;32930;51.112;13.762;2023-01-28T00:53:04;100170.47;;;2.85;95.67
47166;BME280;32930;51.112;13.762;2023-01-28T00:58:05;100170.75;;;2.91;95.81
47166;BME280;32930;51.112;13.762;2023-01-28T01:46:46;100182.06;;;2.79;94.11
47166;BME280;32930;51.112;13.762;2023-01-28T01:52:05;100177.41;;;2.89;93.39
47166;BME280;32930;51.112;13.762;2023-01-28T01:57:09;100168.88;;;2.87;93.50
47166;BME280;32930;51.112;13.762;2023-01-28T01:59:39;100181.47;;;2.85;93.79
47166;BME280;32930;51.112;13.762;2023-01-28T02:09:34;100174.03;;;2.88;94.00
47166;BME280;32930;51.112;13.762;2023-01-28T02:30:20;100164.56;;;2.84;96.07
47166;BME280;32930;51.112;13.762;2023-01-28T02:32:53;100162.94;;;2.86;96.44
47166;BME280;32930;51.112;13.762;2023-01-28T02:38:33;100177.06;;;2.63;95.61
47166;BME280;32930;51.112;13.762;2023-01-28T02:44:01;100176.69;;;2.73;95.94
47166;BME280;32930;51.112;13.762;2023-01-28T02:49:48;100174.16;;;2.73;95.80
47166;BME280;32930;51.112;13.762;2023-01-28T02:55:12;100190.47;;;2.78;95.80
47166;BME280;32930;51.112;13.762;2023-01-28T03:00:11;100197.84;;;2.74;94.84
47166;BME280;32930;51.112;13.762;2023-01-28T03:02:52;100190.03;;;2.69;94.73
47166;BME280;32930;51.112;13.762;2023-01-28T03:05:28;100201.69;;;2.66;94.99
47166;BME280;32930;51.112;13.762;2023-01-28T03:07:56;100194.22;;;2.69;94.76
47166;BME280;32930;51.112;13.762;2023-01-28T03:10:26;100189.47;;;2.75;94.13
47166;BME280;32930;51.112;13.762;2023-01-28T03:12:56;100185.69;;;2.67;94.21
47166;BME280;32930;51.112;13.762;2023-01-28T03:15:45;100195.66;;;2.64;93.58
47166;BME280;32930;51.112;13.762;2023-01-28T03:18:49;100197.47;;;2.66;93.62
47166;BME280;32930;51.112;13.762;2023-01-28T03:21:41;100199.16;;;2.66;93.67
47166;BME280;32930;51.112;13.762;2023-01-28T03:24:31;100200.38;;;2.56;93.38
47166;BME280;32930;51.112;13.762;2023-01-28T03:27:32;100204.94;;;2.63;94.00
47166;BME280;32930;51.112;13.762;2023-01-28T03:30:31;100197.84;;;2.74;93.33
47166;BME280;32930;51.112;13.762;2023-01-28T03:33:20;100203.66;;;2.71;92.93
47166;BME280;32930;51.112;13.762;2023-01-28T03:36:09;100213.53;;;2.67;92.97
47166;BME280;32930;51.112;13.762;2023-01-28T03:38:57;100219.09;;;2.42;92.68
47166;BME280;32930;51.112;13.762;2023-01-28T03:41:28;100220.84;;;2.43;92.49
47166;BME280;32930;51.112;13.762;2023-01-28T03:46:26;100225.13;;;2.62;92.87
47166;BME280;32930;51.112;13.762;2023-01-28T03:48:52;100227.44;;;2.57;92.69
47166;BME280;32930;51.112;13.762;2023-01-28T03:51:18;100229.75;;;2.52;92.45
47166;BME280;32930;51.112;13.762;2023-01-28T03:53:43;100234.22;;;2.40;92.60
47166;BME280;32930;51.112;13.762;2023-01-28T03:56:16;100230.09;;;2.42;92.13
47166;BME280;32930;51.112;13.762;2023-01-28T03:58:42;100226.34;;;2.34;91.39
47166;BME280;32930;51.112;13.762;2023-01-28T05:04:31;100279.56;;;1.54;82.53
47166;BME280;32930;51.112;13.762;2023-01-28T05:06:57;100273.59;;;1.52;82.92
47166;BME280;32930;51.112;13.762;2023-01-28T05:09:25;100277.75;;;1.51;82.68
47166;BME280;32930;51.112;13.762;2023-01-28T05:11:51;100282.28;;;1.57;82.38
47166;BME280;32930;51.112;13.762;2023-01-28T05:14:16;100279.84;;;1.58;83.30
47166;BME280;32930;51.112;13.762;2023-01-28T05:16:42;100289.47;;;1.49;82.79
47166;BME280;32930;51.112;13.762;2023-01-28T05:19:08;100277.91;;;1.54;82.33
47166;BME280;32930;51.112;13.762;2023-01-28T05:21:33;100286.47;;;1.56;82.33
47166;BME280;32930;51.112;13.762;2023-01-28T05:30:13;100287.09;;;1.52;82.04
47166;BME280;32930;51.112;13.762;2023-01-28T05:38:56;100311.84;;;1.58;82.62
47166;BME280;32930;51.112;13.762;2023-01-28T05:41:21;100306.06;;;1.60;81.85
47166;BME280;32930;51.112;13.762;2023-01-28T05:43:47;100302.72;;;1.45;82.07
47166;BME280;32930;51.112;13.762;2023-01-28T05:46:12;100311.28;;;1.63;82.16
47166;BME280;32930;51.112;13.762;2023-01-28T05:48:38;100314.88;;;1.67;81.22
47166;BME280;32930;51.112;13.762;2023-01-28T05:51:03;100324.00;;;1.49;80.64
47166;BME280;32930;51.112;13.762;2023-01-28T05:53:30;100318.84;;;1.47;80.59
47166;BME280;32930;51.112;13.762;2023-01-28T05:55:55;100320.50;;;1.47;80.04
47166;BME280;32930;51.112;13.762;2023-01-28T05:58:21;100328.00;;;1.45;80.32
47166;BME280;32930;51.112;13.762;2023-01-28T06:00:47;100326.59;;;1.50;80.70
47166;BME280;32930;51.112;13.762;2023-01-28T06:03:12;100325.78;;;1.51;81.15
47166;BME280;32930;51.112;13.762;2023-01-28T06:05:38;100329.09;;;1.50;80.72
47166;BME280;32930;51.112;13.762;2023-01-28T06:08:04;100337.22;;;1.45;80.64
47166;BME280;32930;51.112;13.762;2023-01-28T06:10:30;100355.72;;;1.44;80.85
47166;BME280;32930;51.112;13.762;2023-01-28T06:12:55;100348.13;;;1.44;79.84
47166;BME280;32930;51.112;13.762;2023-01-28T06:15:21;100351.72;;;1.32;79.68
47166;BME280;32930;51.112;13.762;2023-01-28T06:20:22;100359.69;;;1.09;77.69
47166;BME280;32930;51.112;13.762;2023-01-28T06:22:50;100362.03;;;1.21;77.90
47166;BME280;32930;51.112;13.762;2023-01-28T06:38:43;100388.53;;;1.12;77.02
47166;BME280;32930;51.112;13.762;2023-01-28T06:41:09;100387.66;;;1.12;76.36
47166;BME280;32930;51.112;13.762;2023-01-28T06:43:34;100389.03;;;1.07;76.45
47166;BME280;32930;51.112;13.762;2023-01-28T06:46:00;100390.13;;;1.10;76.77
47166;BME280;32930;51.112;13.762;2023-01-28T06:48:27;100397.78;;;1.12;76.81
47166;BME280;32930;51.112;13.762;2023-01-28T06:50:52;100396.97;;;1.28;76.48
47166;BME280;32930;51.112;13.762;2023-01-28T06:53:18;100397.78;;;1.27;76.71
47166;BME280;32930;51.112;13.762;2023-01-28T06:55:44;100403.41;;;1.23;76.86
47166;BME280;32930;51.112;13.762;2023-01-28T06:58:10;100398.88;;;1.32;76.29
47166;BME280;32930;51.112;13.762;2023-01-28T07:00:36;100400.19;;;1.40;76.87
47166;BME280;32930;51.112;13.762;2023-01-28T07:03:02;100414.13;;;1.19;76.67
47166;BME280;32930;51.112;13.762;2023-01-28T07:05:28;100407.44;;;1.19;76.73
47166;BME280;32930;51.112;13.762;2023-01-28T07:07:54;100407.00;;;1.26;76.65
47166;BME280;32930;51.112;13.762;2023-01-28T07:10:19;100405.59;;;1.16;75.15
47166;BME280;32930;51.112;13.762;2023-01-28T07:12:45;100413.78;;;1.12;74.03
47166;BME280;32930;51.112;13.762;2023-01-28T07:15:11;100405.19;;;1.24;75.01
47166;BME280;32930;51.112;13.762;2023-01-28T07:17:40;100403.84;;;1.15;73.81
47166;BME280;32930;51.112;13.762;2023-01-28T07:20:07;100408.75;;;1.27;73.51
47166;BME280;32930;51.112;13.762;2023-01-28T07:22:36;100407.53;;;1.21;72.50
47166;BME280;32930;51.112;13.762;2023-01-28T07:25:05;100410.13;;;1.22;72.66
47166;BME280;32930;51.112;13.762;2023-01-28T08:51:49;100442.53;;;1.44;71.18
47166;BME280;32930;51.112;13.762;2023-01-28T08:54:14;100432.81;;;1.67;71.55
47166;BME280;32930;51.112;13.762;2023-01-28T08:56:40;100445.06;;;1.59;70.87
47166;BME280;32930;51.112;13.762;2023-01-28T08:59:12;100446.03;;;1.61;70.70
47166;BME280;32930;51.112;13.762;2023-01-28T09:01:37;100445.13;;;1.60;70.93
47166;BME280;32930;51.112;13.762;2023-01-28T09:04:03;100458.56;;;1.59;71.24
47166;BME280;32930;51.112;13.762;2023-01-28T09:06:29;100453.94;;;1.67;70.83
47166;BME280;32930;51.112;13.762;2023-01-28T09:09:01;100458.03;;;1.65;71.21
47166;BME280;32930;51.112;13.762;2023-01-28T09:11:28;100466.06;;;1.58;70.26
47166;BME280;32930;51.112;13.762;2023-01-28T09:13:56;100461.63;;;1.54;70.22
47166;BME280;32930;51.112;13.762;2023-01-28T09:16:21;100453.34;;;1.56;70.28
47166;BME280;32930;51.112;13.762;2023-01-28T09:18:47;100458.38;;;1.56;69.52
47166;BME280;32930;51.112;13.762;2023-01-28T09:21:13;100455.16;;;1.44;69.10
47166;BME280;32930;51.112;13.762;2023-01-28T09:23:39;100460.31;;;1.46;69.18
47166;BME280;32930;51.112;13.762;2023-01-28T09:26:05;100459.78;;;1.66;69.05
47166;BME280;32930;51.112;13.762;2023-01-28T09:28:31;100469.72;;;1.63;69.55
47166;BME280;32930;51.112;13.762;2023-01-28T09:31:05;100474.28;;;1.39;67.67
47166;BME280;32930;51.112;13.762;2023-01-28T09:33:31;100477.56;;;1.68;69.58
47166;BME280;32930;51.112;13.762;2023-01-28T09:36:03;100470.91;;;1.84;70.92
47166;BME280;32930;51.112;13.762;2023-01-28T09:38:30;100466.59;;;1.67;67.52
47166;BME280;32930;51.112;13.762;2023-01-28T09:40:57;100463.25;;;1.68;68.32
47166;BME280;32930;51.112;13.762;2023-01-28T09:46:07;100474.13;;;1.82;68.07
47166;BME280;32930;51.112;13.762;2023-01-28T09:48:52;100464.69;;;1.48;66.63
47166;BME280;32930;51.112;13.762;2023-01-28T09:51:44;100468.09;;;1.49;66.64
47166;BME280;32930;51.112;13.762;2023-01-28T09:54:23;100476.44;;;1.48;66.54
47166;BME280;32930;51.112;13.762;2023-01-28T09:56:59;100477.16;;;1.30;65.64
47166;BME280;32930;51.112;13.762;2023-01-28T09:59:33;100471.72;;;1.54;66.08
47166;BME280;32930;51.112;13.762;2023-01-28T10:10:19;100480.88;;;1.67;66.90
47166;BME280;32930;51.112;13.762;2023-01-28T10:15:49;100476.44;;;1.62;66.19
47166;BME280;32930;51.112;13.762;2023-01-28T10:18:29;100484.13;;;1.49;66.68
47166;BME280;32930;51.112;13.762;2023-01-28T10:21:26;100482.34;;;1.63;66.53
47166;BME280;32930;51.112;13.762;2023-01-28T10:26:35;100487.00;;;1.55;66.73
47166;BME280;32930;51.112;13.762;2023-01-28T10:29:16;100502.69;;;1.50;67.21
47166;BME280;32930;51.112;13.762;2023-01-28T10:32:16;100500.34;;;1.53;66.40
47166;BME280;32930;51.112;13.762;2023-01-28T10:34:45;100499.13;;;1.46;65.96
47166;BME280;32930;51.112;13.762;2023-01-28T10:37:15;100496.41;;;1.43;66.42
47166;BME280;32930;51.112;13.762;2023-01-28T10:39:41;100500.75;;;1.60;66.63
47166;BME280;32930;51.112;13.762;2023-01-28T10:45:18;100506.00;;;1.34;65.43
47166;BME280;32930;51.112;13.762;2023-01-28T10:48:22;100506.34;;;1.55;66.56
47166;BME280;32930;51.112;13.762;2023-01-28T10:50:55;100505.22;;;1.50;66.57
47166;BME280;32930;51.112;13.762;2023-01-28T10:56:00;100506.88;;;1.34;65.85
47166;BME280;32930;51.112;13.762;2023-01-28T10:58:28;100515.31;;;1.35;66.68
47166;BME280;32930;51.112;13.762;2023-01-28T11:01:05;100516.81;;;1.46;66.06
47166;BME280;32930;51.112;13.762;2023-01-28T11:03:32;100506.59;;;1.59;66.37
47166;BME280;32930;51.112;13.762;2023-01-28T11:06:00;100510.53;;;1.39;66.58
47166;BME280;32930;51.112;13.762;2023-01-28T11:08:28;100507.03;;;1.37;65.66
47166;BME280;32930;51.112;13.762;2023-01-28T11:10:56;100500.91;;;1.63;66.33
47166;BME280;32930;51.112;13.762;2023-01-28T11:13:24;100504.75;;;1.57;66.92
47166;BME280;32930;51.112;13.762;2023-01-28T11:16:01;100506.53;;;1.58;66.76
47166;BME280;32930;51.112;13.762;2023-01-28T11:18:49;100496.75;;;1.49;66.25
47166;BME280;32930;51.112;13.762;2023-01-28T11:21:29;100502.50;;;1.47;65.97
47166;BME280;32930;51.112;13.762;2023-01-28T11:24:06;100498.66;;;1.53;66.82
47166;BME280;32930;51.112;13.762;2023-01-28T11:26:43;100499.38;;;1.66;67.18
47166;BME280;32930;51.112;13.762;2023-01-28T11:29:26;100499.00;;;1.59;67.35
47166;BME280;32930;51.112;13.762;2023-01-28T11:31:53;100504.75;;;1.72;68.00
47166;BME280;32930;51.112;13.762;2023-01-28T11:34:19;100502.00;;;1.67;67.84
47166;BME280;32930;51.112;13.762;2023-01-28T11:36:54;100505.81;;;1.60;67.31
47166;BME280;32930;51.112;13.762;2023-01-28T11:39:23;100494.41;;;1.67;66.53
47166;BME280;32930;51.112;13.762;2023-01-28T11:41:51;100483.50;;;1.53;66.31
47166;BME280;32930;51.112;13.762;2023-01-28T11:44:23;100478.53;;;1.55;67.29
47166;BME280;32930;51.112;13.762;2023-01-28T11:50:24;100480.00;;;1.66;67.57
47166;BME280;32930;51.112;13.762;2023-01-28T11:53:10;100480.88;;;1.67;67.07
47166;BME280;32930;51.112;13.762;2023-01-28T12:12:58;100476.53;;;1.64;67.99
47166;BME280;32930;51.112;13.762;2023-01-28T12:18:26;100477.00;;;1.73;68.05
47166;BME280;32930;51.112;13.762;2023-01-28T12:21:08;100472.22;;;1.78;68.42
47166;BME280;32930;51.112;13.762;2023-01-28T12:23:57;100468.91;;;1.79;68.57
47166;BME280;32930;51.112;13.762;2023-01-28T12:26:44;100474.25;;;1.69;66.93
47166;BME280;32930;51.112;13.762;2023-01-28T12:29:40;100475.56;;;1.77;67.26
47166;BME280;32930;51.112;13.762;2023-01-28T12:38:55;100463.34;;;1.70;65.73
47166;BME280;32930;51.112;13.762;2023-01-28T12:40:53;100465.16;;;1.72;66.44
47166;BME280;32930;51.112;13.762;2023-01-28T12:46:43;100457.84;;;1.77;67.46
47166;BME280;32930;51.112;13.762;2023-01-28T12:49:17;100458.44;;;1.73;67.41
47166;BME280;32930;51.112;13.762;2023-01-28T12:57:03;100458.38;;;1.56;65.81
47166;BME280;32930;51.112;13.762;2023-01-28T12:59:40;100453.00;;;1.50;65.46
47166;BME280;32930;51.112;13.762;2023-01-28T13:07:11;100451.25;;;1.64;66.61
47166;BME280;32930;51.112;13.762;2023-01-28T13:09:53;100458.09;;;1.67;66.28
47166;BME280;32930;51.112;13.762;2023-01-28T13:12:23;100457.16;;;1.65;66.26
47166;BME280;32930;51.112;13.762;2023-01-28T13:14:50;100450.72;;;1.55;65.75
47166;BME280;32930;51.112;13.762;2023-01-28T13:17:28;100458.03;;;1.65;66.92
47166;BME280;32930;51.112;13.762;2023-01-28T13:19:55;100459.94;;;1.69;67.66
47166;BME280;32930;51.112;13.762;2023-01-28T13:22:26;100464.66;;;1.63;66.63
47166;BME280;32930;51.112;13.762;2023-01-28T13:24:53;100459.06;;;1.69;67.25
47166;BME280;32930;51.112;13.762;2023-01-28T13:27:25;100457.94;;;1.63;67.45
47166;BME280;32930;51.112;13.762;2023-01-28T13:30:27;100463.88;;;1.64;66.48
47166;BME280;32930;51.112;13.762;2023-01-28T13:33:02;100460.97;;;1.73;66.25
47166;BME280;32930;51.112;13.762;2023-01-28T13:35:35;100467.63;;;1.71;67.33
47166;BME280;32930;51.112;13.762;2023-01-28T13:38:27;100460.28;;;1.75;67.27
47166;BME280;32930;51.112;13.762;2023-01-28T13:43:35;100477.91;;;1.59;66.96
47166;BME280;32930;51.112;13.762;2023-01-28T13:48:52;100468.22;;;1.67;66.30
47166;BME280;32930;51.112;13.762;2023-01-28T13:51:29;100470.41;;;1.60;66.50
47166;BME280;32930;51.112;13.762;2023-01-28T13:56:40;100477.81;;;1.57;66.16
47166;BME280;32930;51.112;13.762;2023-01-28T14:18:00;100501.72;;;1.62;66.05
47166;BME280;32930;51.112;13.762;2023-01-28T14:20:33;100496.13;;;1.68;66.60
47166;BME280;32930;51.112;13.762;2023-01-28T14:23:12;100495.16;;;1.66;67.25
47166;BME280;32930;51.112;13.762;2023-01-28T14:28:40;100499.53;;;1.69;66.52
47166;BME280;32930;51.112;13.762;2023-01-28T14:31:10;100497.81;;;1.68;66.34
47166;BME280;32930;51.112;13.762;2023-01-28T14:33:40;100491.44;;;1.59;66.17
47166;BME280;32930;51.112;13.762;2023-01-28T14:36:10;100498.31;;;1.77;67.34
47166;BME280;32930;51.112;13.762;2023-01-28T14:38:40;100495.69;;;1.60;65.60
47166;BME280;32930;51.112;13.762;2023-01-28T14:41:08;100485.56;;;1.60;64.78
47166;BME280;32930;51.112;13.762;2023-01-28T14:43:37;100485.06;;;1.66;65.87
47166;BME280;32930;51.112;13.762;2023-01-28T14:46:30;100489.06;;;1.62;66.03
47166;BME280;32930;51.112;13.762;2023-01-28T14:49:26;100491.19;;;1.55;65.17
47166;BME280;32930;51.112;13.762;2023-01-28T14:55:32;100490.91;;;1.65;65.11
47166;BME280;32930;51.112;13.762;2023-01-28T14:58:10;100497.47;;;1.61;64.72
47166;BME280;32930;51.112;13.762;2023-01-28T15:00:38;100489.59;;;1.72;65.63
47166;BME280;32930;51.112;13.762;2023-01-28T15:03:10;100485.06;;;1.66;64.79
47166;BME280;32930;51.112;13.762;2023-01-28T15:05:41;100483.41;;;1.67;65.88
47166;BME280;32930;51.112;13.762;2023-01-28T15:14:00;100480.28;;;1.71;66.77
47166;BME280;32930;51.112;13.762;2023-01-28T15:16:27;100483.22;;;1.63;65.74
47166;BME280;32930;51.112;13.762;2023-01-28T15:18:56;100488.97;;;1.76;65.56
47166;BME280;32930;51.112;13.762;2023-01-28T15:21:26;100496.13;;;1.68;66.67
47166;BME280;32930;51.112;13.762;2023-01-28T15:23:59;100484.19;;;1.66;67.78
47166;BME280;32930;51.112;13.762;2023-01-28T15:26:31;100478.25;;;1.65;66.61
47166;BME280;32930;51.112;13.762;2023-01-28T15:28:58;100475.22;;;1.71;67.87
47166;BME280;32930;51.112;13.762;2023-01-28T15:31:30;100476.94;;;1.72;67.69
47166;BME280;32930;51.112;13.762;2023-01-28T15:34:18;100470.50;;;1.77;67.32
47166;BME280;32930;51.112;13.762;2023-01-28T15:36:44;100473.91;;;1.62;66.62
47166;BME280;32930;51.112;13.762;2023-01-28T15:39:19;100480.16;;;1.69;67.01
47166;BME280;32930;51.112;13.762;2023-01-28T15:41:52;100470.75;;;1.67;65.80
47166;BME280;32930;51.112;13.762;2023-01-28T15:44:34;100458.44;;;1.73;67.89
47166;BME280;32930;51.112;13.762;2023-01-28T15:47:10;100458.22;;;1.68;68.65
47166;BME280;32930;51.112;13.762;2023-01-28T15:49:46;100463.50;;;1.73;68.58
47166;BME280;32930;51.112;13.762;2023-01-28T15:52:13;100463.97;;;1.66;68.22
47166;BME280;32930;51.112;13.762;2023-01-28T15:54:42;100466.13;;;1.74;67.76
47166;BME280;32930;51.112;13.762;2023-01-28T15:57:24;100460.97;;;1.73;67.98
47166;BME280;32930;51.112;13.762;2023-01-28T16:00:03;100463.44;;;1.71;67.91
47166;BME280;32930;51.112;13.762;2023-01-28T16:02:42;100465.00;;;1.69;66.28
47166;BME280;32930;51.112;13.762;2023-01-28T16:05:31;100449.81;;;1.69;67.03
47166;BME280;32930;51.112;13.762;2023-01-28T16:08:06;100452.88;;;1.63;66.13
47166;BME280;32930;51.112;13.762;2023-01-28T16:10:33;100456.78;;;1.73;65.92
47166;BME280;32930;51.112;13.762;2023-01-28T16:13:05;100463.63;;;1.59;65.68
47166;BME280;32930;51.112;13.762;2023-01-28T16:15:37;100448.81;;;1.51;63.13
47166;BME280;32930;51.112;13.762;2023-01-28T16:18:05;100451.66;;;1.72;63.86
47166;BME280;32930;51.112;13.762;2023-01-28T16:20:32;100453.16;;;1.68;65.60
47166;BME280;32930;51.112;13.762;2023-01-28T16:22:59;100454.81;;;1.68;65.79
47166;BME280;32930;51.112;13.762;2023-01-28T16:25:32;100466.50;;;1.66;66.11
47166;BME280;32930;51.112;13.762;2023-01-28T16:28:00;100469.25;;;1.70;66.76
47166;BME280;32930;51.112;13.762;2023-01-28T16:30:27;100473.03;;;1.77;66.96
47166;BME280;32930;51.112;13.762;2023-01-28T16:32:53;100468.34;;;1.53;65.93
47166;BME280;32930;51.112;13.762;2023-01-28T16:35:27;100475.63;;;1.63;64.78
47166;BME280;32930;51.112;13.762;2023-01-28T16:37:53;100479.66;;;1.60;64.55
47166;BME280;32930;51.112;13.762;2023-01-28T16:40:21;100480.16;;;1.69;65.31
47166;BME280;32930;51.112;13.762;2023-01-28T16:42:48;100477.75;;;1.56;64.16
47166;BME280;32930;51.112;13.762;2023-01-28T16:45:19;100474.78;;;1.63;66.06
47166;BME280;32930;51.112;13.762;2023-01-28T16:47:45;100482.47;;;1.65;66.62
47166;BME280;32930;51.112;13.762;2023-01-28T16:50:12;100481.91;;;1.70;67.24
47166;BME280;32930;51.112;13.762;2023-01-28T16:52:39;100472.06;;;1.75;67.11
47166;BME280;32930;51.112;13.762;2023-01-28T16:55:14;100469.19;;;1.69;67.33
47166;BME280;32930;51.112;13.762;2023-01-28T16:57:43;100469.19;;;1.69;67.55
47166;BME280;32930;51.112;13.762;2023-01-28T17:00:17;100465.69;;;1.67;66.58
47166;BME280;32930;51.112;13.762;2023-01-28T17:02:44;100475.03;;;1.68;66.86
47166;BME280;32930;51.112;13.762;2023-01-28T17:05:10;100480.88;;;1.67;66.10
47166;BME280;32930;51.112;13.762;2023-01-28T17:07:36;100478.34;;;1.67;66.94
47166;BME280;32930;51.112;13.762;2023-01-28T17:10:03;100481.59;;;1.64;67.27
47166;BME280;32930;51.112;13.762;2023-01-28T17:12:29;100483.22;;;1.63;66.18
47166;BME280;32930;51.112;13.762;2023-01-28T17:14:54;100495.34;;;1.69;65.70
47166;BME280;32930;51.112;13.762;2023-01-28T17:17:20;100498.56;;;1.67;66.21
47166;BME280;32930;51.112;13.762;2023-01-28T17:19:45;100506.59;;;1.59;66.90
47166;BME280;32930;51.112;13.762;2023-01-28T17:22:11;100519.16;;;1.73;67.30
47166;BME280;32930;51.112;13.762;2023-01-28T17:24:36;100509.47;;;1.66;67.57
